sensor_id;sensor_type;location;lat;lon;timestamp;P1;durP1;ratioP1;P2;durP2;ratioP2
751;SDS011;360;48.764;9.164;2022-08-18T00:01:39;3.37;;;2.87;;
751;SDS011;360;48.764;9.164;2022-08-18T00:04:07;3.90;;;3.03;;
751;SDS011;360;48.764;9.164;2022-08-18T00:06:34;3.20;;;2.90;;
751;SDS011;360;48.764;9.164;2022-08-18T00:09:02;3.47;;;3.17;;
751;SDS011;360;48.764;9.164;2022-08-18T00:11:31;3.80;;;2.67;;
751;SDS011;360;48.764;9.164;2022-08-18T00:13:59;4.03;;;3.13;;
751;SDS011;360;48.764;9.164;2022-08-18T00:16:26;3.70;;;3.23;;
751;SDS011;360;48.764;9.164;2022-08-18T00:18:54;3.07;;;2.77;;
751;SDS011;360;48.764;9.164;2022-08-18T00:21:21;3.23;;;2.93;;
751;SDS011;360;48.764;9.164;2022-08-18T00:23:49;2.97;;;2.67;;
751;SDS011;360;48.764;9.164;2022-08-18T00:26:16;4.17;;;3.60;;
751;SDS011;360;48.764;9.164;2022-08-18T00:28:43;3.83;;;3.30;;
751;SDS011;360;48.764;9.164;2022-08-18T00:31:10;3.57;;;2.93;;
751;SDS011;360;48.764;9.164;2022-08-18T00:33:37;3.43;;;3.00;;
751;SDS011;360;48.764;9.164;2022-08-18T00:36:06;4.93;;;3.30;;
751;SDS011;360;48.764;9.164;2022-08-18T00:38:33;5.20;;;3.17;;
751;SDS011;360;48.764;9.164;2022-08-18T00:41:00;3.40;;;2.30;;
751;SDS011;360;48.764;9.164;2022-08-18T00:43:28;3.30;;;2.77;;
751;SDS011;360;48.764;9.164;2022-08-18T00:45:58;3.50;;;2.80;;
751;SDS011;360;48.764;9.164;2022-08-18T00:48:25;2.80;;;2.57;;
751;SDS011;360;48.764;9.164;2022-08-18T00:50:53;3.53;;;2.90;;
751;SDS011;360;48.764;9.164;2022-08-18T00:53:23;3.33;;;3.03;;
751;SDS011;360;48.764;9.164;2022-08-18T00:55:54;2.93;;;2.67;;
751;SDS011;360;48.764;9.164;2022-08-18T00:58:23;4.60;;;2.90;;
751;SDS011;360;48.764;9.164;2022-08-18T01:00:52;2.77;;;2.57;;
751;SDS011;360;48.764;9.164;2022-08-18T01:03:19;4.50;;;3.30;;
751;SDS011;360;48.764;9.164;2022-08-18T01:05:49;3.07;;;2.77;;
751;SDS011;360;48.764;9.164;2022-08-18T01:08:18;3.90;;;3.60;;
751;SDS011;360;48.764;9.164;2022-08-18T01:10:47;3.20;;;2.90;;
751;SDS011;360;48.764;9.164;2022-08-18T01:13:15;4.37;;;3.33;;
751;SDS011;360;48.764;9.164;2022-08-18T01:15:42;3.77;;;3.10;;
751;SDS011;360;48.764;9.164;2022-08-18T01:18:10;3.13;;;2.70;;
751;SDS011;360;48.764;9.164;2022-08-18T01:20:58;3.90;;;3.27;;
751;SDS011;360;48.764;9.164;2022-08-18T01:23:48;2.93;;;2.67;;
751;SDS011;360;48.764;9.164;2022-08-18T01:26:16;4.40;;;2.97;;
751;SDS011;360;48.764;9.164;2022-08-18T01:28:43;3.90;;;3.10;;
751;SDS011;360;48.764;9.164;2022-08-18T01:31:11;3.23;;;2.80;;
751;SDS011;360;48.764;9.164;2022-08-18T01:33:40;3.60;;;2.90;;
751;SDS011;360;48.764;9.164;2022-08-18T01:36:10;3.57;;;3.10;;
751;SDS011;360;48.764;9.164;2022-08-18T01:38:38;3.70;;;2.87;;
751;SDS011;360;48.764;9.164;2022-08-18T01:41:07;4.27;;;3.00;;
751;SDS011;360;48.764;9.164;2022-08-18T01:43:34;3.57;;;3.23;;
751;SDS011;360;48.764;9.164;2022-08-18T01:46:02;3.57;;;2.83;;
751;SDS011;360;48.764;9.164;2022-08-18T01:48:29;3.70;;;3.40;;
751;SDS011;360;48.764;9.164;2022-08-18T01:50:58;3.17;;;2.90;;
751;SDS011;360;48.764;9.164;2022-08-18T01:53:25;3.20;;;2.90;;
751;SDS011;360;48.764;9.164;2022-08-18T01:55:53;3.43;;;3.13;;
751;SDS011;360;48.764;9.164;2022-08-18T01:58:22;4.10;;;3.30;;
751;SDS011;360;48.764;9.164;2022-08-18T02:00:51;3.60;;;3.17;;
751;SDS011;360;48.764;9.164;2022-08-18T02:03:20;3.60;;;2.87;;
751;SDS011;360;48.764;9.164;2022-08-18T02:05:52;3.67;;;2.90;;
751;SDS011;360;48.764;9.164;2022-08-18T02:08:20;3.63;;;3.00;;
751;SDS011;360;48.764;9.164;2022-08-18T02:10:48;4.10;;;3.30;;
751;SDS011;360;48.764;9.164;2022-08-18T02:13:15;3.73;;;3.30;;
751;SDS011;360;48.764;9.164;2022-08-18T02:15:43;3.77;;;3.23;;
751;SDS011;360;48.764;9.164;2022-08-18T02:18:13;3.93;;;3.07;;
751;SDS011;360;48.764;9.164;2022-08-18T02:20:41;5.20;;;3.10;;
751;SDS011;360;48.764;9.164;2022-08-18T02:23:08;3.53;;;2.93;;
751;SDS011;360;48.764;9.164;2022-08-18T02:25:35;4.60;;;3.00;;
751;SDS011;360;48.764;9.164;2022-08-18T02:28:02;2.77;;;2.57;;
751;SDS011;360;48.764;9.164;2022-08-18T02:30:30;3.10;;;2.80;;
751;SDS011;360;48.764;9.164;2022-08-18T02:32:58;6.10;;;3.10;;
751;SDS011;360;48.764;9.164;2022-08-18T02:35:26;3.10;;;2.70;;
751;SDS011;360;48.764;9.164;2022-08-18T02:37:53;4.00;;;2.53;;
751;SDS011;360;48.764;9.164;2022-08-18T02:40:20;3.40;;;3.10;;
751;SDS011;360;48.764;9.164;2022-08-18T02:42:47;3.73;;;3.43;;
751;SDS011;360;48.764;9.164;2022-08-18T02:45:16;4.30;;;3.30;;
751;SDS011;360;48.764;9.164;2022-08-18T02:47:44;3.20;;;2.80;;
751;SDS011;360;48.764;9.164;2022-08-18T02:50:12;5.50;;;3.43;;
751;SDS011;360;48.764;9.164;2022-08-18T02:52:41;3.90;;;3.37;;
751;SDS011;360;48.764;9.164;2022-08-18T02:55:08;6.90;;;3.40;;
751;SDS011;360;48.764;9.164;2022-08-18T02:57:37;3.93;;;3.37;;
751;SDS011;360;48.764;9.164;2022-08-18T03:00:07;4.17;;;3.47;;
751;SDS011;360;48.764;9.164;2022-08-18T03:02:36;4.77;;;3.80;;
751;SDS011;360;48.764;9.164;2022-08-18T03:05:04;3.03;;;2.70;;
751;SDS011;360;48.764;9.164;2022-08-18T03:07:32;4.50;;;3.10;;
751;SDS011;360;48.764;9.164;2022-08-18T03:10:00;3.87;;;3.47;;
751;SDS011;360;48.764;9.164;2022-08-18T03:12:27;3.47;;;3.10;;
751;SDS011;360;48.764;9.164;2022-08-18T03:14:54;3.40;;;3.10;;
751;SDS011;360;48.764;9.164;2022-08-18T03:17:21;3.70;;;3.30;;
751;SDS011;360;48.764;9.164;2022-08-18T03:19:48;4.10;;;3.70;;
751;SDS011;360;48.764;9.164;2022-08-18T03:22:15;3.43;;;3.13;;
751;SDS011;360;48.764;9.164;2022-08-18T03:24:44;5.57;;;3.40;;
751;SDS011;360;48.764;9.164;2022-08-18T03:27:11;8.70;;;3.63;;
751;SDS011;360;48.764;9.164;2022-08-18T03:29:38;4.83;;;3.87;;
751;SDS011;360;48.764;9.164;2022-08-18T03:32:06;4.37;;;3.27;;
751;SDS011;360;48.764;9.164;2022-08-18T03:34:33;3.07;;;2.40;;
751;SDS011;360;48.764;9.164;2022-08-18T03:37:00;3.37;;;3.07;;
751;SDS011;360;48.764;9.164;2022-08-18T03:39:27;2.90;;;2.60;;
751;SDS011;360;48.764;9.164;2022-08-18T03:41:56;3.70;;;2.93;;
751;SDS011;360;48.764;9.164;2022-08-18T03:44:23;3.30;;;2.80;;
751;SDS011;360;48.764;9.164;2022-08-18T03:46:51;3.97;;;3.57;;
751;SDS011;360;48.764;9.164;2022-08-18T03:49:19;3.20;;;2.90;;
751;SDS011;360;48.764;9.164;2022-08-18T03:51:46;4.20;;;3.57;;
751;SDS011;360;48.764;9.164;2022-08-18T03:54:16;3.23;;;2.77;;
751;SDS011;360;48.764;9.164;2022-08-18T03:56:43;4.33;;;3.60;;
751;SDS011;360;48.764;9.164;2022-08-18T03:59:13;3.97;;;2.90;;
751;SDS011;360;48.764;9.164;2022-08-18T04:01:42;3.90;;;3.53;;
751;SDS011;360;48.764;9.164;2022-08-18T04:04:10;4.93;;;3.40;;
751;SDS011;360;48.764;9.164;2022-08-18T04:06:39;3.47;;;2.93;;
751;SDS011;360;48.764;9.164;2022-08-18T04:09:08;4.70;;;2.87;;
751;SDS011;360;48.764;9.164;2022-08-18T04:11:36;4.90;;;3.63;;
751;SDS011;360;48.764;9.164;2022-08-18T04:14:03;5.77;;;3.57;;
751;SDS011;360;48.764;9.164;2022-08-18T04:16:32;4.23;;;3.03;;
751;SDS011;360;48.764;9.164;2022-08-18T04:19:02;4.40;;;3.13;;
751;SDS011;360;48.764;9.164;2022-08-18T04:21:30;4.10;;;3.47;;
751;SDS011;360;48.764;9.164;2022-08-18T04:23:58;3.67;;;3.30;;
751;SDS011;360;48.764;9.164;2022-08-18T04:26:29;4.13;;;3.40;;
751;SDS011;360;48.764;9.164;2022-08-18T04:28:56;3.83;;;3.53;;
751;SDS011;360;48.764;9.164;2022-08-18T04:31:25;3.90;;;3.43;;
751;SDS011;360;48.764;9.164;2022-08-18T04:33:55;3.27;;;2.73;;
751;SDS011;360;48.764;9.164;2022-08-18T04:36:23;4.97;;;3.70;;
751;SDS011;360;48.764;9.164;2022-08-18T04:38:51;4.77;;;3.43;;
751;SDS011;360;48.764;9.164;2022-08-18T04:41:18;4.03;;;3.63;;
751;SDS011;360;48.764;9.164;2022-08-18T04:43:51;3.40;;;3.00;;
751;SDS011;360;48.764;9.164;2022-08-18T04:46:18;5.43;;;4.00;;
751;SDS011;360;48.764;9.164;2022-08-18T04:48:46;4.00;;;3.50;;
751;SDS011;360;48.764;9.164;2022-08-18T04:51:16;6.03;;;3.70;;
751;SDS011;360;48.764;9.164;2022-08-18T04:53:44;4.10;;;3.30;;
751;SDS011;360;48.764;9.164;2022-08-18T04:56:15;5.63;;;3.80;;
751;SDS011;360;48.764;9.164;2022-08-18T04:58:45;3.93;;;3.57;;
751;SDS011;360;48.764;9.164;2022-08-18T05:01:16;4.10;;;3.70;;
751;SDS011;360;48.764;9.164;2022-08-18T05:03:44;3.77;;;3.37;;
751;SDS011;360;48.764;9.164;2022-08-18T05:06:11;4.80;;;3.97;;
751;SDS011;360;48.764;9.164;2022-08-18T05:08:40;4.30;;;3.23;;
751;SDS011;360;48.764;9.164;2022-08-18T05:11:07;4.97;;;3.37;;
751;SDS011;360;48.764;9.164;2022-08-18T05:13:35;3.60;;;3.20;;
751;SDS011;360;48.764;9.164;2022-08-18T05:16:02;3.63;;;3.30;;
751;SDS011;360;48.764;9.164;2022-08-18T05:18:31;5.20;;;3.57;;
751;SDS011;360;48.764;9.164;2022-08-18T05:21:03;3.77;;;3.10;;
751;SDS011;360;48.764;9.164;2022-08-18T05:23:30;4.27;;;3.10;;
751;SDS011;360;48.764;9.164;2022-08-18T05:25:59;4.37;;;3.47;;
751;SDS011;360;48.764;9.164;2022-08-18T05:28:27;3.30;;;2.97;;
751;SDS011;360;48.764;9.164;2022-08-18T05:30:54;5.03;;;3.87;;
751;SDS011;360;48.764;9.164;2022-08-18T05:33:22;5.93;;;3.90;;
751;SDS011;360;48.764;9.164;2022-08-18T05:35:52;4.20;;;3.50;;
751;SDS011;360;48.764;9.164;2022-08-18T05:38:29;4.20;;;3.67;;
751;SDS011;360;48.764;9.164;2022-08-18T05:41:02;3.50;;;3.20;;
751;SDS011;360;48.764;9.164;2022-08-18T05:43:31;4.87;;;3.87;;
751;SDS011;360;48.764;9.164;2022-08-18T05:45:58;3.80;;;3.40;;
751;SDS011;360;48.764;9.164;2022-08-18T05:48:27;3.80;;;3.40;;
751;SDS011;360;48.764;9.164;2022-08-18T05:50:54;4.27;;;3.67;;
751;SDS011;360;48.764;9.164;2022-08-18T05:53:22;3.23;;;2.93;;
751;SDS011;360;48.764;9.164;2022-08-18T05:56:10;4.40;;;3.27;;
751;SDS011;360;48.764;9.164;2022-08-18T05:58:56;4.00;;;3.33;;
751;SDS011;360;48.764;9.164;2022-08-18T06:01:25;4.67;;;3.97;;
751;SDS011;360;48.764;9.164;2022-08-18T06:03:55;3.00;;;2.70;;
751;SDS011;360;48.764;9.164;2022-08-18T06:06:25;4.43;;;3.50;;
751;SDS011;360;48.764;9.164;2022-08-18T06:08:55;3.87;;;3.33;;
751;SDS011;360;48.764;9.164;2022-08-18T06:11:25;3.93;;;3.20;;
751;SDS011;360;48.764;9.164;2022-08-18T06:13:52;4.37;;;3.97;;
751;SDS011;360;48.764;9.164;2022-08-18T06:16:25;3.63;;;3.33;;
751;SDS011;360;48.764;9.164;2022-08-18T06:18:58;4.57;;;3.73;;
751;SDS011;360;48.764;9.164;2022-08-18T06:21:38;4.07;;;3.53;;
751;SDS011;360;48.764;9.164;2022-08-18T06:24:10;3.87;;;3.40;;
751;SDS011;360;48.764;9.164;2022-08-18T06:26:45;3.60;;;3.30;;
751;SDS011;360;48.764;9.164;2022-08-18T06:29:19;4.37;;;3.23;;
751;SDS011;360;48.764;9.164;2022-08-18T06:31:50;5.27;;;3.70;;
751;SDS011;360;48.764;9.164;2022-08-18T06:34:22;4.80;;;3.60;;
751;SDS011;360;48.764;9.164;2022-08-18T06:36:52;4.13;;;3.73;;
751;SDS011;360;48.764;9.164;2022-08-18T06:39:23;6.27;;;4.20;;
751;SDS011;360;48.764;9.164;2022-08-18T06:41:53;4.60;;;3.57;;
751;SDS011;360;48.764;9.164;2022-08-18T06:44:21;5.47;;;4.17;;
751;SDS011;360;48.764;9.164;2022-08-18T06:46:54;4.43;;;4.03;;
751;SDS011;360;48.764;9.164;2022-08-18T06:49:25;5.13;;;4.47;;
751;SDS011;360;48.764;9.164;2022-08-18T06:51:54;3.53;;;3.23;;
751;SDS011;360;48.764;9.164;2022-08-18T06:54:25;3.90;;;3.50;;
751;SDS011;360;48.764;9.164;2022-08-18T06:56:55;3.43;;;3.13;;
751;SDS011;360;48.764;9.164;2022-08-18T06:59:23;5.00;;;3.97;;
751;SDS011;360;48.764;9.164;2022-08-18T07:01:52;4.00;;;3.60;;
751;SDS011;360;48.764;9.164;2022-08-18T07:04:37;3.57;;;3.27;;
751;SDS011;360;48.764;9.164;2022-08-18T07:07:11;3.87;;;3.47;;
751;SDS011;360;48.764;9.164;2022-08-18T07:09:39;3.90;;;3.53;;
751;SDS011;360;48.764;9.164;2022-08-18T07:12:09;4.90;;;2.90;;
751;SDS011;360;48.764;9.164;2022-08-18T07:14:43;3.40;;;3.10;;
751;SDS011;360;48.764;9.164;2022-08-18T07:17:11;5.90;;;4.30;;
751;SDS011;360;48.764;9.164;2022-08-18T07:19:39;3.87;;;3.50;;
751;SDS011;360;48.764;9.164;2022-08-18T07:22:07;6.60;;;3.70;;
751;SDS011;360;48.764;9.164;2022-08-18T07:24:38;4.80;;;3.80;;
751;SDS011;360;48.764;9.164;2022-08-18T07:27:07;3.83;;;3.43;;
751;SDS011;360;48.764;9.164;2022-08-18T07:29:37;3.90;;;3.40;;
751;SDS011;360;48.764;9.164;2022-08-18T07:32:07;3.20;;;2.90;;
751;SDS011;360;48.764;9.164;2022-08-18T07:34:36;4.37;;;3.93;;
751;SDS011;360;48.764;9.164;2022-08-18T07:37:06;3.57;;;3.27;;
751;SDS011;360;48.764;9.164;2022-08-18T07:39:36;3.70;;;3.30;;
751;SDS011;360;48.764;9.164;2022-08-18T07:42:06;3.43;;;3.13;;
751;SDS011;360;48.764;9.164;2022-08-18T07:44:39;3.90;;;3.60;;
751;SDS011;360;48.764;9.164;2022-08-18T07:47:11;3.53;;;3.23;;
751;SDS011;360;48.764;9.164;2022-08-18T07:49:39;3.70;;;3.40;;
751;SDS011;360;48.764;9.164;2022-08-18T07:52:11;3.60;;;3.30;;
751;SDS011;360;48.764;9.164;2022-08-18T07:54:42;4.13;;;3.33;;
751;SDS011;360;48.764;9.164;2022-08-18T07:57:12;4.00;;;3.53;;
751;SDS011;360;48.764;9.164;2022-08-18T07:59:44;3.80;;;3.27;;
751;SDS011;360;48.764;9.164;2022-08-18T08:02:18;3.43;;;3.13;;
751;SDS011;360;48.764;9.164;2022-08-18T08:04:48;3.90;;;3.60;;
751;SDS011;360;48.764;9.164;2022-08-18T08:07:20;3.60;;;3.20;;
751;SDS011;360;48.764;9.164;2022-08-18T08:09:51;3.60;;;3.30;;
751;SDS011;360;48.764;9.164;2022-08-18T08:12:22;6.50;;;3.20;;
751;SDS011;360;48.764;9.164;2022-08-18T08:14:53;4.80;;;4.03;;
751;SDS011;360;48.764;9.164;2022-08-18T08:17:23;3.63;;;3.30;;
751;SDS011;360;48.764;9.164;2022-08-18T08:20:00;4.60;;;3.80;;
751;SDS011;360;48.764;9.164;2022-08-18T08:22:30;8.03;;;3.20;;
751;SDS011;360;48.764;9.164;2022-08-18T08:25:02;4.07;;;2.87;;
751;SDS011;360;48.764;9.164;2022-08-18T08:27:32;3.67;;;3.30;;
751;SDS011;360;48.764;9.164;2022-08-18T08:30:04;3.77;;;3.37;;
751;SDS011;360;48.764;9.164;2022-08-18T08:32:32;4.37;;;3.23;;
751;SDS011;360;48.764;9.164;2022-08-18T08:35:03;3.80;;;3.50;;
751;SDS011;360;48.764;9.164;2022-08-18T08:37:32;4.03;;;3.47;;
751;SDS011;360;48.764;9.164;2022-08-18T08:40:03;3.80;;;3.40;;
751;SDS011;360;48.764;9.164;2022-08-18T08:42:35;5.77;;;3.87;;
751;SDS011;360;48.764;9.164;2022-08-18T08:45:07;3.77;;;3.23;;
751;SDS011;360;48.764;9.164;2022-08-18T08:47:35;4.20;;;3.30;;
751;SDS011;360;48.764;9.164;2022-08-18T08:50:06;4.43;;;3.33;;
751;SDS011;360;48.764;9.164;2022-08-18T08:52:36;4.00;;;3.60;;
751;SDS011;360;48.764;9.164;2022-08-18T08:55:06;4.30;;;3.17;;
751;SDS011;360;48.764;9.164;2022-08-18T08:57:36;4.30;;;3.70;;
751;SDS011;360;48.764;9.164;2022-08-18T09:00:08;4.80;;;3.87;;
751;SDS011;360;48.764;9.164;2022-08-18T09:05:24;4.43;;;3.40;;
751;SDS011;360;48.764;9.164;2022-08-18T09:08:04;4.53;;;4.13;;
751;SDS011;360;48.764;9.164;2022-08-18T09:10:40;4.10;;;3.70;;
751;SDS011;360;48.764;9.164;2022-08-18T09:13:14;4.17;;;3.77;;
751;SDS011;360;48.764;9.164;2022-08-18T09:15:53;3.57;;;3.27;;
751;SDS011;360;48.764;9.164;2022-08-18T09:18:33;3.83;;;3.47;;
751;SDS011;360;48.764;9.164;2022-08-18T09:21:12;5.00;;;3.73;;
751;SDS011;360;48.764;9.164;2022-08-18T09:23:42;4.03;;;3.63;;
751;SDS011;360;48.764;9.164;2022-08-18T09:26:21;4.33;;;3.93;;
751;SDS011;360;48.764;9.164;2022-08-18T09:28:53;4.00;;;3.60;;
751;SDS011;360;48.764;9.164;2022-08-18T09:31:23;3.47;;;3.17;;
751;SDS011;360;48.764;9.164;2022-08-18T09:34:03;4.87;;;3.60;;
751;SDS011;360;48.764;9.164;2022-08-18T09:36:37;4.13;;;3.83;;
751;SDS011;360;48.764;9.164;2022-08-18T09:39:07;6.17;;;4.17;;
751;SDS011;360;48.764;9.164;2022-08-18T09:41:58;4.43;;;4.03;;
751;SDS011;360;48.764;9.164;2022-08-18T09:47:10;4.60;;;4.07;;
751;SDS011;360;48.764;9.164;2022-08-18T09:49:44;4.87;;;4.30;;
751;SDS011;360;48.764;9.164;2022-08-18T09:54:58;4.57;;;4.13;;
751;SDS011;360;48.764;9.164;2022-08-18T09:57:26;4.97;;;4.57;;
751;SDS011;360;48.764;9.164;2022-08-18T10:03:02;6.40;;;4.90;;
751;SDS011;360;48.764;9.164;2022-08-18T10:05:30;4.47;;;3.90;;
751;SDS011;360;48.764;9.164;2022-08-18T10:10:42;4.97;;;4.57;;
751;SDS011;360;48.764;9.164;2022-08-18T10:13:14;3.87;;;3.57;;
751;SDS011;360;48.764;9.164;2022-08-18T10:15:47;3.90;;;3.50;;
751;SDS011;360;48.764;9.164;2022-08-18T10:18:22;5.50;;;5.00;;
751;SDS011;360;48.764;9.164;2022-08-18T10:20:55;4.73;;;3.53;;
751;SDS011;360;48.764;9.164;2022-08-18T10:23:40;4.80;;;4.33;;
751;SDS011;360;48.764;9.164;2022-08-18T10:28:52;4.73;;;4.33;;
751;SDS011;360;48.764;9.164;2022-08-18T10:31:20;4.33;;;3.93;;
751;SDS011;360;48.764;9.164;2022-08-18T10:33:59;4.70;;;4.30;;
751;SDS011;360;48.764;9.164;2022-08-18T10:36:37;5.60;;;4.63;;
751;SDS011;360;48.764;9.164;2022-08-18T10:39:05;4.67;;;4.27;;
751;SDS011;360;48.764;9.164;2022-08-18T10:41:33;4.60;;;4.20;;
751;SDS011;360;48.764;9.164;2022-08-18T10:44:02;5.40;;;5.00;;
751;SDS011;360;48.764;9.164;2022-08-18T10:46:31;5.07;;;4.60;;
751;SDS011;360;48.764;9.164;2022-08-18T10:49:06;4.93;;;4.53;;
751;SDS011;360;48.764;9.164;2022-08-18T10:51:50;5.43;;;4.93;;
751;SDS011;360;48.764;9.164;2022-08-18T10:54:21;5.00;;;4.50;;
751;SDS011;360;48.764;9.164;2022-08-18T10:56:51;5.27;;;4.60;;
751;SDS011;360;48.764;9.164;2022-08-18T10:59:21;5.60;;;5.10;;
751;SDS011;360;48.764;9.164;2022-08-18T11:02:00;5.87;;;5.07;;
751;SDS011;360;48.764;9.164;2022-08-18T11:04:30;5.40;;;4.90;;
751;SDS011;360;48.764;9.164;2022-08-18T11:07:03;5.10;;;4.60;;
751;SDS011;360;48.764;9.164;2022-08-18T11:09:31;5.47;;;4.97;;
751;SDS011;360;48.764;9.164;2022-08-18T11:11:59;4.87;;;4.40;;
751;SDS011;360;48.764;9.164;2022-08-18T11:14:36;5.17;;;4.67;;
751;SDS011;360;48.764;9.164;2022-08-18T11:17:07;4.90;;;4.50;;
751;SDS011;360;48.764;9.164;2022-08-18T11:19:41;5.40;;;4.90;;
751;SDS011;360;48.764;9.164;2022-08-18T11:22:19;4.63;;;4.23;;
751;SDS011;360;48.764;9.164;2022-08-18T11:24:46;4.80;;;4.30;;
751;SDS011;360;48.764;9.164;2022-08-18T11:27:16;5.00;;;4.60;;
751;SDS011;360;48.764;9.164;2022-08-18T11:29:44;5.37;;;4.70;;
751;SDS011;360;48.764;9.164;2022-08-18T11:32:13;6.47;;;4.40;;
751;SDS011;360;48.764;9.164;2022-08-18T11:34:44;5.20;;;4.70;;
751;SDS011;360;48.764;9.164;2022-08-18T11:37:18;5.63;;;5.13;;
751;SDS011;360;48.764;9.164;2022-08-18T11:39:46;6.30;;;5.80;;
751;SDS011;360;48.764;9.164;2022-08-18T11:42:14;5.63;;;5.13;;
751;SDS011;360;48.764;9.164;2022-08-18T11:44:42;5.63;;;5.13;;
751;SDS011;360;48.764;9.164;2022-08-18T11:47:12;4.90;;;4.50;;
751;SDS011;360;48.764;9.164;2022-08-18T11:49:48;5.07;;;4.57;;
751;SDS011;360;48.764;9.164;2022-08-18T11:52:18;6.50;;;5.43;;
751;SDS011;360;48.764;9.164;2022-08-18T11:54:47;5.90;;;5.40;;
751;SDS011;360;48.764;9.164;2022-08-18T11:57:30;5.63;;;4.90;;
751;SDS011;360;48.764;9.164;2022-08-18T12:02:46;5.33;;;4.70;;
751;SDS011;360;48.764;9.164;2022-08-18T12:05:15;5.90;;;5.40;;
751;SDS011;360;48.764;9.164;2022-08-18T12:07:42;5.60;;;5.10;;
751;SDS011;360;48.764;9.164;2022-08-18T12:10:13;5.87;;;5.37;;
751;SDS011;360;48.764;9.164;2022-08-18T12:12:43;6.23;;;5.63;;
751;SDS011;360;48.764;9.164;2022-08-18T12:15:23;6.33;;;5.73;;
751;SDS011;360;48.764;9.164;2022-08-18T12:17:50;6.13;;;5.60;;
751;SDS011;360;48.764;9.164;2022-08-18T12:20:19;5.70;;;5.20;;
751;SDS011;360;48.764;9.164;2022-08-18T12:22:47;5.40;;;4.90;;
751;SDS011;360;48.764;9.164;2022-08-18T12:25:15;5.70;;;5.20;;
751;SDS011;360;48.764;9.164;2022-08-18T12:27:42;5.70;;;5.20;;
751;SDS011;360;48.764;9.164;2022-08-18T12:30:10;5.40;;;4.90;;
751;SDS011;360;48.764;9.164;2022-08-18T12:32:38;6.30;;;5.50;;
751;SDS011;360;48.764;9.164;2022-08-18T12:35:05;5.17;;;4.77;;
751;SDS011;360;48.764;9.164;2022-08-18T12:37:35;8.93;;;8.03;;
751;SDS011;360;48.764;9.164;2022-08-18T12:40:03;6.40;;;5.80;;
751;SDS011;360;48.764;9.164;2022-08-18T12:42:32;6.37;;;5.30;;
751;SDS011;360;48.764;9.164;2022-08-18T12:44:59;6.30;;;5.10;;
751;SDS011;360;48.764;9.164;2022-08-18T12:47:26;5.20;;;4.80;;
751;SDS011;360;48.764;9.164;2022-08-18T12:49:54;5.80;;;5.30;;
751;SDS011;360;48.764;9.164;2022-08-18T12:52:21;5.20;;;4.10;;
751;SDS011;360;48.764;9.164;2022-08-18T12:54:50;5.70;;;5.20;;
751;SDS011;360;48.764;9.164;2022-08-18T12:57:18;5.60;;;5.20;;
751;SDS011;360;48.764;9.164;2022-08-18T12:59:46;5.40;;;5.00;;
751;SDS011;360;48.764;9.164;2022-08-18T13:02:13;5.17;;;4.77;;
751;SDS011;360;48.764;9.164;2022-08-18T13:04:41;4.70;;;4.30;;
751;SDS011;360;48.764;9.164;2022-08-18T13:07:09;5.83;;;5.40;;
751;SDS011;360;48.764;9.164;2022-08-18T13:09:37;5.20;;;4.70;;
751;SDS011;360;48.764;9.164;2022-08-18T13:12:05;4.70;;;4.30;;
751;SDS011;360;48.764;9.164;2022-08-18T13:14:33;5.93;;;5.30;;
751;SDS011;360;48.764;9.164;2022-08-18T13:17:01;6.10;;;5.30;;
751;SDS011;360;48.764;9.164;2022-08-18T13:19:28;6.03;;;5.37;;
751;SDS011;360;48.764;9.164;2022-08-18T13:21:56;5.47;;;4.90;;
751;SDS011;360;48.764;9.164;2022-08-18T13:24:24;6.00;;;5.50;;
751;SDS011;360;48.764;9.164;2022-08-18T13:26:51;6.43;;;5.83;;
751;SDS011;360;48.764;9.164;2022-08-18T13:29:21;5.47;;;4.97;;
751;SDS011;360;48.764;9.164;2022-08-18T13:31:49;6.00;;;5.50;;
751;SDS011;360;48.764;9.164;2022-08-18T13:34:21;5.47;;;5.07;;
751;SDS011;360;48.764;9.164;2022-08-18T13:36:48;6.03;;;5.53;;
751;SDS011;360;48.764;9.164;2022-08-18T13:39:16;5.90;;;5.40;;
751;SDS011;360;48.764;9.164;2022-08-18T13:41:44;6.07;;;5.67;;
751;SDS011;360;48.764;9.164;2022-08-18T13:44:12;5.60;;;5.10;;
751;SDS011;360;48.764;9.164;2022-08-18T13:46:43;5.50;;;4.90;;
751;SDS011;360;48.764;9.164;2022-08-18T13:49:10;6.60;;;4.57;;
751;SDS011;360;48.764;9.164;2022-08-18T13:51:39;6.13;;;5.53;;
751;SDS011;360;48.764;9.164;2022-08-18T13:54:07;4.80;;;4.40;;
751;SDS011;360;48.764;9.164;2022-08-18T13:56:34;5.87;;;5.27;;
751;SDS011;360;48.764;9.164;2022-08-18T13:59:02;6.97;;;5.80;;
751;SDS011;360;48.764;9.164;2022-08-18T14:01:30;6.17;;;5.67;;
751;SDS011;360;48.764;9.164;2022-08-18T14:03:58;5.20;;;4.60;;
751;SDS011;360;48.764;9.164;2022-08-18T14:06:26;4.70;;;4.30;;
751;SDS011;360;48.764;9.164;2022-08-18T14:08:53;6.90;;;5.47;;
751;SDS011;360;48.764;9.164;2022-08-18T14:11:21;5.00;;;4.50;;
751;SDS011;360;48.764;9.164;2022-08-18T14:13:50;5.40;;;4.90;;
751;SDS011;360;48.764;9.164;2022-08-18T14:16:17;5.53;;;5.10;;
751;SDS011;360;48.764;9.164;2022-08-18T14:18:45;4.50;;;4.10;;
751;SDS011;360;48.764;9.164;2022-08-18T14:21:33;5.77;;;4.47;;
751;SDS011;360;48.764;9.164;2022-08-18T14:24:18;4.33;;;4.03;;
751;SDS011;360;48.764;9.164;2022-08-18T14:27:03;5.50;;;5.00;;
751;SDS011;360;48.764;9.164;2022-08-18T14:29:30;4.57;;;4.20;;
751;SDS011;360;48.764;9.164;2022-08-18T14:31:57;5.33;;;4.67;;
751;SDS011;360;48.764;9.164;2022-08-18T14:34:25;5.80;;;4.30;;
751;SDS011;360;48.764;9.164;2022-08-18T14:36:53;5.27;;;4.70;;
751;SDS011;360;48.764;9.164;2022-08-18T14:39:20;4.60;;;4.27;;
751;SDS011;360;48.764;9.164;2022-08-18T14:41:47;5.17;;;4.77;;
751;SDS011;360;48.764;9.164;2022-08-18T14:44:15;4.70;;;4.30;;
751;SDS011;360;48.764;9.164;2022-08-18T14:46:42;4.10;;;3.80;;
751;SDS011;360;48.764;9.164;2022-08-18T14:49:11;4.57;;;4.27;;
751;SDS011;360;48.764;9.164;2022-08-18T14:51:39;4.43;;;4.10;;
751;SDS011;360;48.764;9.164;2022-08-18T14:54:09;5.00;;;4.53;;
751;SDS011;360;48.764;9.164;2022-08-18T14:56:36;4.32;;;3.92;;
751;SDS011;360;48.764;9.164;2022-08-18T14:59:03;4.67;;;4.27;;
751;SDS011;360;48.764;9.164;2022-08-18T15:01:31;5.05;;;4.65;;
751;SDS011;360;48.764;9.164;2022-08-18T15:03:58;5.07;;;4.57;;
751;SDS011;360;48.764;9.164;2022-08-18T15:06:26;4.80;;;4.40;;
751;SDS011;360;48.764;9.164;2022-08-18T15:08:53;4.65;;;4.30;;
751;SDS011;360;48.764;9.164;2022-08-18T15:11:22;4.60;;;4.20;;
751;SDS011;360;48.764;9.164;2022-08-18T15:13:49;5.45;;;5.03;;
751;SDS011;360;48.764;9.164;2022-08-18T15:16:16;5.70;;;5.20;;
751;SDS011;360;48.764;9.164;2022-08-18T15:18:44;4.47;;;4.18;;
751;SDS011;360;48.764;9.164;2022-08-18T15:21:12;5.88;;;5.38;;
751;SDS011;360;48.764;9.164;2022-08-18T15:23:57;4.80;;;4.40;;
751;SDS011;360;48.764;9.164;2022-08-18T15:26:52;4.55;;;4.15;;
751;SDS011;360;48.764;9.164;2022-08-18T15:29:19;4.85;;;4.45;;
751;SDS011;360;48.764;9.164;2022-08-18T15:31:46;5.10;;;4.60;;
751;SDS011;360;48.764;9.164;2022-08-18T15:34:14;6.18;;;4.63;;
751;SDS011;360;48.764;9.164;2022-08-18T15:36:41;4.50;;;4.10;;
751;SDS011;360;48.764;9.164;2022-08-18T15:39:08;4.97;;;4.57;;
751;SDS011;360;48.764;9.164;2022-08-18T15:41:37;4.57;;;4.27;;
751;SDS011;360;48.764;9.164;2022-08-18T15:44:06;4.87;;;4.37;;
751;SDS011;360;48.764;9.164;2022-08-18T15:46:35;5.00;;;4.60;;
751;SDS011;360;48.764;9.164;2022-08-18T15:49:03;5.10;;;4.70;;
751;SDS011;360;48.764;9.164;2022-08-18T15:51:31;5.17;;;4.77;;
751;SDS011;360;48.764;9.164;2022-08-18T15:53:59;5.67;;;5.07;;
751;SDS011;360;48.764;9.164;2022-08-18T15:56:26;5.17;;;4.67;;
751;SDS011;360;48.764;9.164;2022-08-18T15:58:54;4.90;;;4.50;;
751;SDS011;360;48.764;9.164;2022-08-18T16:01:23;5.60;;;5.10;;
751;SDS011;360;48.764;9.164;2022-08-18T16:03:51;5.20;;;4.80;;
751;SDS011;360;48.764;9.164;2022-08-18T16:06:20;6.80;;;6.20;;
751;SDS011;360;48.764;9.164;2022-08-18T16:08:48;5.73;;;5.23;;
751;SDS011;360;48.764;9.164;2022-08-18T16:11:16;4.60;;;4.20;;
751;SDS011;360;48.764;9.164;2022-08-18T16:13:44;5.80;;;5.20;;
751;SDS011;360;48.764;9.164;2022-08-18T16:16:12;4.80;;;4.40;;
751;SDS011;360;48.764;9.164;2022-08-18T16:18:40;5.00;;;4.60;;
751;SDS011;360;48.764;9.164;2022-08-18T16:21:09;4.33;;;4.00;;